createdAt,value
2022-09-28T00:00:01.681Z,100.45
2022-09-28T00:05:01.670Z,100.53
2022-09-28T00:10:01.925Z,100.69
2022-09-28T00:15:01.741Z,100.74
2022-09-28T00:20:01.478Z,100.48
2022-09-28T00:25:01.498Z,100.71
2022-09-28T00:30:01.835Z,100.64
2022-09-28T00:35:01.667Z,100.82
2022-09-28T00:40:02.064Z,100.8
2022-09-28T00:45:02.098Z,100.79
2022-09-28T00:50:02.195Z,100.82
2022-09-28T00:55:02.164Z,100.8
2022-09-28T01:00:01.698Z,100.67
2022-09-28T01:05:01.987Z,100.58
2022-09-28T01:10:01.888Z,100.66
2022-09-28T01:15:01.772Z,100.86
2022-09-28T01:20:02.129Z,100.82
2022-09-28T01:25:01.262Z,100.55
2022-09-28T01:30:01.649Z,100.59
2022-09-28T01:35:01.948Z,100.69
2022-09-28T01:40:02.231Z,100.78
2022-09-28T01:45:01.696Z,100.57
2022-09-28T01:50:01.716Z,100.56
2022-09-28T01:55:01.539Z,100.47
2022-09-28T02:00:02.095Z,100.53
2022-09-28T02:05:01.738Z,100.69
2022-09-28T02:10:01.684Z,100.72
2022-09-28T02:15:01.851Z,100.62
2022-09-28T02:20:01.548Z,100.7
2022-09-28T02:25:01.691Z,100.63
2022-09-28T02:30:02.334Z,100.92
2022-09-28T02:35:02.278Z,100.87
2022-09-28T02:40:01.904Z,101.14
2022-09-28T02:45:02.366Z,100.95
2022-09-28T02:50:02.232Z,100.98
2022-09-28T02:55:01.789Z,100.82
2022-09-28T03:00:02.075Z,100.91
2022-09-28T03:05:02.187Z,100.86
2022-09-28T03:10:01.835Z,100.85
2022-09-28T03:15:02.286Z,101.04
2022-09-28T03:20:02.178Z,100.93
2022-09-28T03:25:02.098Z,101.3
2022-09-28T03:30:01.517Z,101.18
2022-09-28T03:35:02.254Z,101.16
2022-09-28T03:40:01.624Z,101.25
2022-09-28T03:45:01.611Z,101.11
2022-09-28T03:50:01.542Z,101.26
2022-09-28T03:55:01.907Z,101.05
2022-09-28T04:00:01.923Z,101.01
2022-09-28T04:05:01.870Z,100.96
2022-09-28T04:10:01.526Z,101.2
2022-09-28T04:15:01.901Z,101.17
2022-09-28T04:20:01.859Z,101.25
2022-09-28T04:25:01.705Z,101.2
2022-09-28T04:30:01.680Z,101.23
2022-09-28T04:35:01.476Z,101.27
2022-09-28T04:40:02.185Z,101.27
2022-09-28T04:45:02.055Z,101.16
2022-09-28T04:50:01.778Z,101.18
2022-09-28T04:55:01.822Z,101.2
2022-09-28T05:00:01.741Z,101.02
2022-09-28T05:05:01.675Z,101.2
2022-09-28T05:10:01.581Z,101.29
2022-09-28T05:15:01.414Z,101.19
2022-09-28T05:20:02.151Z,101.25
2022-09-28T05:25:01.968Z,101.32
2022-09-28T05:30:01.951Z,101.36
2022-09-28T05:35:02.112Z,101.23
2022-09-28T05:40:01.971Z,101.4
2022-09-28T05:45:01.579Z,101.16
2022-09-28T05:50:02.187Z,101.21
2022-09-28T05:55:01.685Z,101.31
2022-09-28T06:00:02.047Z,101.57
2022-09-28T06:05:01.425Z,101.46
2022-09-28T06:10:02.156Z,101.13
2022-09-28T06:15:01.332Z,101.21
2022-09-28T06:20:02.199Z,101.21
2022-09-28T06:25:01.443Z,101.18
2022-09-28T06:30:01.874Z,101.28
2022-09-28T06:35:01.912Z,101.17
2022-09-28T06:40:01.559Z,101.16
2022-09-28T06:45:01.369Z,101.2
2022-09-28T06:50:01.837Z,100.98
2022-09-28T06:55:02.220Z,100.97
2022-09-28T07:00:01.627Z,100.62
2022-09-28T07:05:02.542Z,100.33
2022-09-28T07:10:02.137Z,100.73
2022-09-28T07:15:01.491Z,100.5
2022-09-28T07:20:11.705Z,100.44
2022-09-28T07:25:02.252Z,100.36
2022-09-28T07:30:01.800Z,100.29
2022-09-28T07:35:01.913Z,99.66
2022-09-28T07:40:02.242Z,99.51
2022-09-28T07:45:02.223Z,99.46
2022-09-28T07:50:02.160Z,99.25
2022-09-28T07:55:06.590Z,99.28
2022-09-28T08:00:01.901Z,99.66
2022-09-28T08:05:02.128Z,98.75
2022-09-28T08:10:01.369Z,99.3
2022-09-28T08:15:01.626Z,99.26
2022-09-28T08:20:02.122Z,98.72
2022-09-28T08:25:02.216Z,98.9
2022-09-28T08:30:02.051Z,98.82
2022-09-28T08:35:01.818Z,98.94
2022-09-28T08:40:01.518Z,99.23
2022-09-28T08:45:01.701Z,99.53
2022-09-28T08:50:01.771Z,98.98
2022-09-28T08:55:01.841Z,98.31
2022-09-28T09:00:02.004Z,99.08
2022-09-28T09:05:02.430Z,99.05
2022-09-28T09:10:01.406Z,96.73
2022-09-28T09:15:01.692Z,96.09
2022-09-28T09:20:02.115Z,94.8
2022-09-28T09:25:01.558Z,94.99
2022-09-28T09:30:01.702Z,94.91
2022-09-28T09:35:01.980Z,93.86
2022-09-28T09:40:01.797Z,92.56
2022-09-28T09:45:02.052Z,92.8
2022-09-28T09:50:05.359Z,92.93
2022-09-28T09:55:01.955Z,92.26
2022-09-28T10:00:02.057Z,90.32
2022-09-28T10:05:01.905Z,89.93
2022-09-28T10:10:01.774Z,90.4
2022-09-28T10:15:02.243Z,90.5
2022-09-28T10:20:01.800Z,89.86
2022-09-28T10:25:01.544Z,88.81
2022-09-28T10:30:01.426Z,89.02
2022-09-28T10:35:01.750Z,91.45
2022-09-28T10:40:01.855Z,90.16
2022-09-28T10:45:01.754Z,87.48
2022-09-28T10:50:02.187Z,87.73
2022-09-28T10:55:01.326Z,85.93
2022-09-28T11:00:02.326Z,86.46
2022-09-28T11:05:01.361Z,86.53
2022-09-28T11:10:02.447Z,87.01
2022-09-28T11:15:02.381Z,88.87
2022-09-28T11:20:01.973Z,86.63
2022-09-28T11:25:02.123Z,87.65
2022-09-28T11:30:01.764Z,85.24
2022-09-28T11:35:02.001Z,85.78
2022-09-28T11:40:02.156Z,85.69
2022-09-28T11:45:01.460Z,83.59
2022-09-28T11:50:01.745Z,82.01
2022-09-28T11:55:01.927Z,85.47
2022-09-28T12:00:02.521Z,84.37
2022-09-28T12:05:01.559Z,85.75
2022-09-28T12:10:01.886Z,83.73
2022-09-28T12:15:02.087Z,84.27
2022-09-28T12:20:01.588Z,86.34
2022-09-28T12:25:02.268Z,86.88
2022-09-28T12:30:01.471Z,84.5
2022-09-28T12:35:01.958Z,85.09
2022-09-28T12:40:01.799Z,87.28
2022-09-28T12:45:01.330Z,84.76
2022-09-28T12:50:39.566Z,85.59
2022-09-28T12:55:02.065Z,84.85
2022-09-28T13:00:01.881Z,86.87
2022-09-28T13:05:01.411Z,86.93
2022-09-28T13:10:02.283Z,87.61
2022-09-28T13:15:01.495Z,91.02
2022-09-28T13:20:02.278Z,91.06
2022-09-28T13:25:02.032Z,93.53
2022-09-28T13:30:02.186Z,94.09
2022-09-28T13:35:01.932Z,94.7
2022-09-28T13:40:01.624Z,97.52
2022-09-28T13:45:01.547Z,95.34
2022-09-28T13:50:01.884Z,96.66
2022-09-28T13:55:01.831Z,96.61
2022-09-28T14:00:01.501Z,97.1
2022-09-28T14:05:01.770Z,96.75
2022-09-28T14:10:02.051Z,97.56
2022-09-28T14:15:01.472Z,97.17
2022-09-28T14:20:01.496Z,96.91
2022-09-28T14:25:02.202Z,96.86
2022-09-28T14:30:01.814Z,96.62
2022-09-28T14:35:01.875Z,95.22
2022-09-28T14:40:01.875Z,95.93
2022-09-28T14:45:05.373Z,96.02
2022-09-28T14:50:01.764Z,91.58
2022-09-28T14:55:01.319Z,91.97
2022-09-28T15:00:02.086Z,91.09
2022-09-28T15:05:01.598Z,93.13
2022-09-28T15:10:01.319Z,93.12
2022-09-28T15:15:02.338Z,92.32
2022-09-28T15:20:01.934Z,92.51
2022-09-28T15:25:02.963Z,93.12
2022-09-28T15:30:01.384Z,93.64
2022-09-28T15:35:01.929Z,94.99
2022-09-28T15:40:01.516Z,95.02
2022-09-28T15:45:01.535Z,94.64
2022-09-28T15:50:01.592Z,92.14
2022-09-28T15:55:01.261Z,93.61
2022-09-28T16:00:01.319Z,93.71
2022-09-28T16:05:02.119Z,93.98
2022-09-28T16:10:01.731Z,94.55
2022-09-28T16:15:01.330Z,95.67
2022-09-28T16:20:01.406Z,97.32
2022-09-28T16:25:01.539Z,94.45
2022-09-28T16:30:01.442Z,95.24
2022-09-28T16:35:01.678Z,95.52
2022-09-28T16:40:01.775Z,95.92
2022-09-28T16:45:02.237Z,96.87
2022-09-28T16:50:01.806Z,95.96
2022-09-28T16:55:03.200Z,96.74
2022-09-28T17:00:01.810Z,97.48
2022-09-28T17:05:01.521Z,95.36
2022-09-28T17:10:01.712Z,98.49
2022-09-28T17:15:01.762Z,96.28
2022-09-28T17:20:01.288Z,98.85
2022-09-28T17:25:02.103Z,98.98
2022-09-28T17:30:01.754Z,98.58
2022-09-28T17:35:23.146Z,98.4
2022-09-28T17:40:02.234Z,98.59
2022-09-28T17:45:02.135Z,98.51
2022-09-28T17:50:01.731Z,98.58
2022-09-28T17:55:01.686Z,98.9
2022-09-28T18:00:01.943Z,98.63
2022-09-28T18:05:01.263Z,98.81
2022-09-28T18:10:01.427Z,98.85
2022-09-28T18:15:01.672Z,97.22
2022-09-28T18:20:01.912Z,96.73
2022-09-28T18:25:02.115Z,96.99
2022-09-28T18:30:01.335Z,96.51
2022-09-28T18:35:01.547Z,96.79
2022-09-28T18:40:01.423Z,96.47
2022-09-28T18:45:01.551Z,96.38
2022-09-28T18:50:01.544Z,96.91
2022-09-28T18:55:01.736Z,98.75
2022-09-28T19:00:01.668Z,99.23
2022-09-28T19:05:01.832Z,99.26
2022-09-28T19:10:01.987Z,98.87
2022-09-28T19:15:02.172Z,99
2022-09-28T19:20:01.541Z,99.36
2022-09-28T19:25:01.738Z,99.35
2022-09-28T19:30:01.404Z,99.69
2022-09-28T19:35:02.181Z,99.92
2022-09-28T19:40:01.353Z,99.96
2022-09-28T19:45:01.466Z,98.94
2022-09-28T19:50:02.197Z,99.4
2022-09-28T19:55:02.152Z,98.21
2022-09-28T20:00:03.159Z,99.55
2022-09-28T20:05:02.288Z,99.18
2022-09-28T20:10:02.568Z,98.51
2022-09-28T20:15:02.102Z,98.22
2022-09-28T20:20:01.627Z,97.85
2022-09-28T20:25:02.002Z,98.69
2022-09-28T20:30:01.372Z,97.52
2022-09-28T20:35:02.108Z,98.84
2022-09-28T20:40:02.112Z,98.8
2022-09-28T20:45:02.192Z,98.47
2022-09-28T20:50:02.268Z,98.42
2022-09-28T20:55:02.099Z,98.54
2022-09-28T21:00:02.209Z,96.73
2022-09-28T21:05:02.073Z,97.08
2022-09-28T21:10:01.740Z,97.28
2022-09-28T21:15:05.744Z,97.21
2022-09-28T21:20:01.696Z,97.22
2022-09-28T21:25:01.667Z,97.33
2022-09-28T21:30:01.415Z,97.43
2022-09-28T21:35:01.976Z,97.42
2022-09-28T21:40:01.795Z,97.4
2022-09-28T21:45:01.710Z,99.31
2022-09-28T21:50:01.700Z,99
2022-09-28T21:55:03.318Z,98.92
2022-09-28T22:00:09.137Z,98.69
2022-09-28T22:05:10.805Z,98.28
2022-09-28T22:10:02.111Z,98.73
2022-09-28T22:15:02.283Z,96.06
2022-09-28T22:20:02.058Z,98.47
2022-09-28T22:25:01.741Z,95.65
2022-09-28T22:30:02.245Z,95.76
2022-09-28T22:35:02.116Z,97.25
2022-09-28T22:40:01.830Z,98.15
2022-09-28T22:45:02.290Z,98.2
2022-09-28T22:50:02.060Z,97.66
2022-09-28T22:55:02.038Z,98.55
2022-09-28T23:00:01.997Z,97.72
2022-09-28T23:05:01.478Z,98.43
2022-09-28T23:10:01.395Z,98.43
2022-09-28T23:25:01.697Z,98.3
2022-09-28T23:30:01.454Z,95.75
2022-09-28T23:35:01.333Z,97.4
2022-09-28T23:40:02.167Z,98.39
2022-09-28T23:45:02.078Z,98.56
2022-09-28T23:50:02.102Z,98.36
2022-09-28T23:55:01.343Z,95.56
